Time;durP1;ratioP1;P1;durP2;ratioP2;P2;SDS_P1;SDS_P2;PMS_P1;PMS_P2;Temp;Humidity;BMP_temperature;BMP_pressure;BME280_temperature;BME280_humidity;BME280_pressure;Samples;Min_cycle;Max_cycle;Signal;HPM_P1;HPM_P2
2021/01/19 00:02:07;;;;;;;11.93;3.35;;;17.90;60.10;;;;;;5002119;28;20052;-49
2021/01/19 00:04:37;;;;;;;20.38;4.90;;;18.00;59.10;;;;;;5004345;28;20038;-38
2021/01/19 00:07:08;;;;;;;12.95;4.45;;;18.10;59.30;;;;;;5003390;28;20041;-39
2021/01/19 00:09:38;;;;;;;16.25;3.75;;;18.20;59.30;;;;;;4998857;28;20490;-40
2021/01/19 00:12:09;;;;;;;13.27;3.90;;;18.50;60.20;;;;;;4997259;28;20042;-40
2021/01/19 00:14:40;;;;;;;21.05;3.97;;;18.60;58.50;;;;;;5004312;28;20041;-47
2021/01/19 00:17:09;;;;;;;9.88;2.70;;;18.60;57.70;;;;;;4995518;28;20038;-47
2021/01/19 00:19:39;;;;;;;24.83;5.05;;;18.70;58.80;;;;;;4997313;28;20042;-42
2021/01/19 00:22:10;;;;;;;14.15;3.38;;;18.70;58.10;;;;;;4998918;28;20049;-41
2021/01/19 00:24:40;;;;;;;19.83;4.28;;;18.70;57.20;;;;;;5004142;28;20042;-44
2021/01/19 00:27:12;;;;;;;12.77;4.13;;;18.40;55.70;;;;;;5001810;28;20069;-42
2021/01/19 00:29:41;;;;;;;11.07;3.10;;;18.40;56.80;;;;;;5004575;28;20311;-43
2021/01/19 00:32:11;;;;;;;11.60;3.15;;;18.50;57.60;;;;;;5001398;28;20030;-43
2021/01/19 00:34:42;;;;;;;15.95;4.18;;;18.50;56.50;;;;;;5004029;28;20140;-42
2021/01/19 00:37:13;;;;;;;19.95;4.15;;;18.60;57.00;;;;;;4999613;28;20045;-49
2021/01/19 00:39:43;;;;;;;13.80;3.63;;;18.70;56.80;;;;;;4998454;28;20041;-43
2021/01/19 00:42:15;;;;;;;21.65;3.50;;;18.80;57.00;;;;;;4995942;28;20042;-46
2021/01/19 00:44:44;;;;;;;17.15;3.50;;;18.90;56.20;;;;;;5004859;28;20076;-41
2021/01/19 00:47:14;;;;;;;14.43;4.15;;;18.80;55.20;;;;;;5001098;28;20048;-43
2021/01/19 00:49:48;;;;;;;15.15;3.60;;;18.80;54.40;;;;;;5005841;28;20575;-44
2021/01/19 00:52:21;;;;;;;15.13;4.45;;;18.80;56.10;;;;;;4983548;28;20042;-42
2021/01/19 00:54:54;;;;;;;13.18;3.92;;;19.00;55.00;;;;;;4998539;28;20354;-43
2021/01/19 00:57:25;;;;;;;10.90;3.65;;;19.00;54.80;;;;;;4996576;28;20061;-46
2021/01/19 00:59:56;;;;;;;12.40;3.30;;;19.00;54.70;;;;;;4993653;28;20062;-42
2021/01/19 01:02:28;;;;;;;17.40;4.15;;;19.10;56.00;;;;;;4993281;28;20044;-41
2021/01/19 01:04:58;;;;;;;14.50;3.78;;;19.10;53.60;;;;;;5000310;28;20049;-43
2021/01/19 01:07:41;;;;;;;9.07;3.45;;;19.20;55.30;;;;;;5000198;28;20037;-42
2021/01/19 01:10:14;;;;;;;10.82;3.70;;;19.50;55.60;;;;;;5003674;28;20049;-42
2021/01/19 01:12:46;;;;;;;17.10;3.50;;;19.50;54.90;;;;;;5006109;28;20131;-42
2021/01/19 01:15:24;;;;;;;12.63;3.33;;;19.30;53.50;;;;;;5009114;28;20037;-58
2021/01/19 01:17:56;;;;;;;13.27;3.65;;;19.30;54.50;;;;;;5003781;28;20052;-42
2021/01/19 01:20:28;;;;;;;8.95;3.00;;;19.30;53.80;;;;;;5006236;28;20034;-41
2021/01/19 01:22:58;;;;;;;10.77;2.92;;;19.40;54.80;;;;;;5001416;28;20136;-46
2021/01/19 01:25:28;;;;;;;12.32;3.85;;;19.70;55.10;;;;;;4997754;28;20048;-40
2021/01/19 01:28:00;;;;;;;12.38;3.28;;;19.90;54.30;;;;;;5005577;28;20140;-45
2021/01/19 01:30:30;;;;;;;;;;;20.00;54.50;;;;;;5005240;28;20046;-39
2021/01/19 01:33:05;;;;;;;10.38;2.83;;;20.20;54.00;;;;;;5005663;28;19929;-39
2021/01/19 01:35:36;;;;;;;13.05;2.88;;;19.90;53.40;;;;;;5004645;28;20128;-39
2021/01/19 01:38:09;;;;;;;13.02;3.20;;;20.10;54.40;;;;;;5007785;28;20052;-39
2021/01/19 01:40:38;;;;;;;15.93;4.22;;;20.20;54.40;;;;;;5006758;28;20046;-39
2021/01/19 01:43:16;;;;;;;14.23;3.72;;;20.20;53.60;;;;;;5009659;28;20041;-39
2021/01/19 01:45:46;;;;;;;12.82;3.58;;;20.00;52.50;;;;;;5000477;28;20256;-42
2021/01/19 01:48:16;;;;;;;8.32;3.15;;;20.00;54.10;;;;;;5002516;28;20045;-40
2021/01/19 01:50:47;;;;;;;13.02;4.13;;;20.10;53.90;;;;;;5002418;28;20046;-42
2021/01/19 01:53:22;;;;;;;12.18;3.38;;;20.10;52.60;;;;;;5009166;28;20045;-40
2021/01/19 01:55:53;;;;;;;12.25;3.47;;;20.10;53.00;;;;;;5008341;28;20514;-48
2021/01/19 01:58:26;;;;;;;12.50;2.60;;;20.10;53.20;;;;;;4991263;28;20600;-40
2021/01/19 02:00:57;;;;;;;14.00;4.13;;;20.10;53.00;;;;;;5005979;28;20111;-43
2021/01/19 02:03:28;;;;;;;;;;;20.00;52.30;;;;;;5007553;28;20045;-39
2021/01/19 02:05:59;;;;;;;15.77;3.47;;;20.00;53.10;;;;;;5007984;28;19929;-41
2021/01/19 02:08:54;;;;;;;12.65;3.92;;;20.20;53.40;;;;;;5001791;28;20115;-37
2021/01/19 02:11:46;;;;;;;12.65;3.45;;;20.30;53.70;;;;;;4999235;28;20053;-39
2021/01/19 02:14:35;;;;;;;7.45;2.90;;;20.40;52.80;;;;;;5004668;28;20048;-39
2021/01/19 02:17:31;;;;;;;9.10;2.92;;;20.50;53.90;;;;;;4985244;28;20054;-37
2021/01/19 02:20:34;;;;;;;9.75;3.47;;;20.60;53.10;;;;;;5006650;28;20775;-40
2021/01/19 02:23:18;;;;;;;21.40;4.25;;;20.50;52.40;;;;;;5006774;28;20096;-40
2021/01/19 02:26:23;;;;;;;10.88;3.58;;;20.50;53.60;;;;;;5005337;28;20746;-43
2021/01/19 02:29:26;;;;;;;11.68;3.42;;;20.60;54.20;;;;;;5003563;28;20045;-45
2021/01/19 02:32:42;;;;;;;13.68;3.28;;;20.70;53.60;;;;;;4978645;28;20033;-41
2021/01/19 02:35:22;;;;;;;8.95;3.22;;;20.80;54.00;;;;;;4985109;28;20045;-43
2021/01/19 02:38:36;;;;;;;13.35;3.30;;;20.70;52.80;;;;;;5005243;28;20041;-40
2021/01/19 02:41:07;;;;;;;10.45;3.35;;;20.70;52.60;;;;;;5003673;28;20476;-43
2021/01/19 02:43:42;;;;;;;10.60;2.92;;;20.80;52.60;;;;;;5005226;28;20770;-40
2021/01/19 02:46:13;;;;;;;12.05;4.18;;;20.70;52.20;;;;;;5008364;28;20077;-41
2021/01/19 02:48:51;;;;;;;8.90;3.63;;;20.80;53.30;;;;;;5004473;28;20239;-40
2021/01/19 02:51:23;;;;;;;11.30;3.35;;;20.90;53.90;;;;;;5003813;28;20042;-40
2021/01/19 02:53:55;;;;;;;13.40;3.55;;;20.90;53.50;;;;;;4990348;28;20677;-41
2021/01/19 02:56:54;;;;;;;14.50;4.43;;;20.90;53.90;;;;;;4999779;28;20357;-41
2021/01/19 02:59:25;;;;;;;14.10;3.53;;;20.90;53.90;;;;;;5006457;28;20045;-44
2021/01/19 03:02:23;;;;;;;8.10;3.55;;;21.00;53.80;;;;;;5009469;28;20057;-44
2021/01/19 03:04:56;;;;;;;12.27;3.88;;;20.90;53.40;;;;;;4996375;28;20444;-41
2021/01/19 03:07:29;;;;;;;12.15;3.33;;;20.90;53.50;;;;;;5001829;28;20053;-42
2021/01/19 03:10:02;;;;;;;10.88;3.75;;;20.70;53.00;;;;;;5005373;28;20414;-41
2021/01/19 03:12:35;;;;;;;18.00;3.42;;;20.70;53.40;;;;;;5002627;28;20052;-43
2021/01/19 03:15:07;;;;;;;21.90;5.00;;;20.70;53.30;;;;;;5000536;28;20811;-41
2021/01/19 03:17:41;;;;;;;9.27;3.30;;;20.70;53.50;;;;;;4997535;28;20087;-41
2021/01/19 03:20:14;;;;;;;13.95;3.38;;;20.80;53.40;;;;;;5002458;28;20048;-41
2021/01/19 03:22:46;;;;;;;15.77;3.15;;;20.80;53.50;;;;;;5006156;28;20041;-41
2021/01/19 03:25:16;;;;;;;16.13;3.83;;;20.70;53.10;;;;;;5007357;28;20053;-43
2021/01/19 03:27:47;;;;;;;15.23;4.20;;;20.80;53.20;;;;;;5003875;28;20053;-40
2021/01/19 03:30:17;;;;;;;11.30;3.45;;;20.80;53.10;;;;;;5002846;28;20760;-43
2021/01/19 03:32:47;;;;;;;12.45;3.22;;;20.80;52.90;;;;;;4987547;28;20444;-46
2021/01/19 03:35:18;;;;;;;12.05;3.15;;;20.80;52.20;;;;;;4985435;28;20042;-41
2021/01/19 03:37:49;;;;;;;13.48;3.33;;;20.80;52.90;;;;;;4997618;28;20037;-43
2021/01/19 03:40:19;;;;;;;15.52;3.38;;;20.80;52.90;;;;;;4995319;28;20486;-43
2021/01/19 03:42:49;;;;;;;10.07;3.03;;;20.90;53.10;;;;;;5001490;28;20052;-43
2021/01/19 03:45:19;;;;;;;10.75;3.33;;;21.00;50.80;;;;;;5003719;28;20048;-40
2021/01/19 03:47:48;;;;;;;13.30;3.10;;;20.90;52.70;;;;;;5022090;28;20053;-42
2021/01/19 03:50:19;;;;;;;12.48;2.75;;;21.10;52.90;;;;;;5020335;28;20728;-39
2021/01/19 03:52:52;;;;;;;7.72;2.85;;;21.10;52.30;;;;;;5017097;28;20038;-41
2021/01/19 03:55:25;;;;;;;8.95;3.05;;;21.10;52.50;;;;;;5022089;28;20045;-41
2021/01/19 03:57:58;;;;;;;9.82;2.95;;;21.10;52.10;;;;;;5017541;28;20045;-42
2021/01/19 04:00:32;;;;;;;11.52;2.97;;;21.10;52.40;;;;;;5020273;28;20041;-45
2021/01/19 04:03:03;;;;;;;8.70;2.53;;;21.20;52.40;;;;;;5001843;28;20072;-52
2021/01/19 04:05:35;;;;;;;11.65;3.22;;;21.30;52.80;;;;;;4999647;28;20062;-50
2021/01/19 04:08:04;;;;;;;;;;;21.30;52.50;;;;;;5009215;28;20773;-53
2021/01/19 04:10:35;;;;;;;11.40;3.35;;;21.30;51.70;;;;;;5006732;28;20027;-50
2021/01/19 04:13:06;;;;;;;15.80;3.55;;;21.10;52.00;;;;;;5008025;28;20075;-49
2021/01/19 04:15:37;;;;;;;9.73;2.67;;;21.20;52.10;;;;;;5027229;28;20053;-50
2021/01/19 04:18:12;;;;;;;9.88;3.08;;;21.30;52.50;;;;;;5004208;28;20103;-49
2021/01/19 04:20:42;;;;;;;13.85;3.33;;;21.30;51.80;;;;;;5012580;28;20083;-48
2021/01/19 04:23:18;;;;;;;11.40;3.47;;;21.30;51.30;;;;;;5017748;28;20132;-59
2021/01/19 04:25:50;;;;;;;10.70;2.70;;;21.30;51.30;;;;;;5022551;28;20044;-46
2021/01/19 04:28:22;;;;;;;12.10;3.15;;;21.40;52.10;;;;;;5024148;28;20064;-48
2021/01/19 04:30:54;;;;;;;;;;;21.40;52.30;;;;;;5018733;28;20045;-52
2021/01/19 04:33:25;;;;;;;9.20;2.45;;;21.50;52.30;;;;;;5009563;28;19925;-43
2021/01/19 04:35:56;;;;;;;10.32;2.65;;;21.50;52.30;;;;;;5007166;28;20080;-43
2021/01/19 04:38:30;;;;;;;7.10;2.58;;;21.50;51.80;;;;;;5012900;28;20045;-46
2021/01/19 04:41:02;;;;;;;12.88;3.20;;;21.40;51.60;;;;;;5009438;28;20042;-51
2021/01/19 04:43:32;;;;;;;7.78;3.08;;;21.60;52.60;;;;;;5010409;28;20064;-43
2021/01/19 04:46:06;;;;;;;9.68;3.45;;;21.60;51.10;;;;;;5005127;28;20364;-55
2021/01/19 04:48:43;;;;;;;6.88;2.75;;;21.60;51.60;;;;;;4994773;28;20216;-51
2021/01/19 04:51:22;;;;;;;8.80;2.53;;;21.70;52.00;;;;;;4998602;28;20208;-49
2021/01/19 04:54:21;;;;;;;9.52;3.28;;;21.70;50.50;;;;;;4989246;28;21358;-51
2021/01/19 04:56:56;;;;;;;11.40;3.63;;;21.70;51.40;;;;;;4997088;28;20057;-58
2021/01/19 04:59:34;;;;;;;14.32;3.58;;;21.60;50.80;;;;;;5007693;28;20037;-54
2021/01/19 05:02:15;;;;;;;9.55;2.38;;;21.60;51.30;;;;;;5009110;28;20065;-52
2021/01/19 05:04:50;;;;;;;16.10;3.60;;;21.70;51.40;;;;;;5005687;28;20443;-55
2021/01/19 05:07:32;;;;;;;10.77;3.30;;;21.70;51.30;;;;;;5005606;28;20045;-52
2021/01/19 05:10:36;;;;;;;18.67;4.20;;;21.70;51.10;;;;;;5001750;28;20236;-44
2021/01/19 05:13:15;;;;;;;14.15;3.10;;;21.70;51.50;;;;;;4978599;28;20508;-55
2021/01/19 05:15:47;;;;;;;13.18;3.70;;;21.80;51.60;;;;;;5008000;28;20038;-50
2021/01/19 05:18:19;;;;;;;10.95;3.22;;;21.70;51.00;;;;;;5007776;28;20051;-51
2021/01/19 05:20:54;;;;;;;17.58;3.95;;;21.70;50.80;;;;;;5007576;28;20576;-43
2021/01/19 05:23:28;;;;;;;11.07;3.10;;;21.40;49.00;;;;;;5001442;28;20627;-53
2021/01/19 05:26:03;;;;;;;8.50;2.83;;;21.30;51.00;;;;;;5011040;28;20044;-56
2021/01/19 05:28:39;;;;;;;15.07;3.55;;;21.40;51.20;;;;;;5010527;28;20042;-56
2021/01/19 05:31:29;;;;;;;13.77;3.47;;;21.40;51.10;;;;;;5005526;28;20046;-53
2021/01/19 05:34:14;;;;;;;10.27;3.03;;;21.50;51.10;;;;;;4999916;28;20117;-53
2021/01/19 05:36:50;;;;;;;11.68;3.42;;;21.50;50.60;;;;;;5007768;28;20204;-52
2021/01/19 05:39:22;;;;;;;10.73;2.80;;;21.60;50.90;;;;;;5008789;28;20046;-59
2021/01/19 05:41:56;;;;;;;9.02;2.80;;;21.50;50.90;;;;;;5007773;28;20076;-53
2021/01/19 05:44:31;;;;;;;13.40;3.58;;;21.50;49.70;;;;;;5006094;28;20169;-57
2021/01/19 05:47:05;;;;;;;19.63;4.55;;;21.30;49.60;;;;;;5016807;28;20048;-55
2021/01/19 05:49:43;;;;;;;8.15;2.60;;;21.30;49.70;;;;;;5011414;28;20053;-51
2021/01/19 05:52:17;;;;;;;11.70;2.90;;;21.40;50.10;;;;;;5014392;28;20042;-53
2021/01/19 05:54:50;;;;;;;10.48;3.40;;;21.50;49.30;;;;;;5003461;28;20101;-50
2021/01/19 05:57:24;;;;;;;7.28;2.63;;;21.40;49.90;;;;;;5002580;28;20041;-52
2021/01/19 05:59:59;;;;;;;11.52;3.40;;;21.20;50.20;;;;;;5005878;28;20480;-42
2021/01/19 06:02:44;;;;;;;13.00;3.03;;;21.20;49.80;;;;;;5011549;28;20137;-49
2021/01/19 06:05:17;;;;;;;9.18;2.60;;;21.10;49.40;;;;;;5005366;28;20069;-48
2021/01/19 06:07:47;;;;;;;11.73;3.10;;;21.30;50.50;;;;;;5016374;28;20483;-39
2021/01/19 06:10:22;;;;;;;12.70;3.00;;;21.50;50.30;;;;;;5007090;28;20047;-46
2021/01/19 06:12:56;;;;;;;7.47;3.50;;;21.40;50.20;;;;;;5007834;28;20128;-40
2021/01/19 06:15:30;;;;;;;10.10;2.88;;;21.30;49.60;;;;;;5009841;28;20073;-40
2021/01/19 06:18:03;;;;;;;13.68;3.03;;;21.20;50.00;;;;;;5001487;28;20123;-41
2021/01/19 06:20:44;;;;;;;14.60;3.55;;;21.10;49.90;;;;;;4993111;28;20053;-40
2021/01/19 06:23:15;;;;;;;12.95;3.85;;;21.20;49.70;;;;;;4989398;28;20041;-43
2021/01/19 06:25:45;;;;;;;10.18;2.85;;;21.20;48.90;;;;;;5006354;28;20045;-37
2021/01/19 06:28:17;;;;;;;9.77;3.15;;;21.10;49.70;;;;;;5005673;28;20054;-44
2021/01/19 06:30:46;;;;;;;12.82;2.95;;;21.00;49.00;;;;;;5006144;28;20037;-41
2021/01/19 06:33:22;;;;;;;13.25;3.15;;;20.90;49.20;;;;;;5007463;28;20050;-44
2021/01/19 06:35:56;;;;;;;15.50;3.45;;;20.90;49.70;;;;;;5014121;28;20045;-47
2021/01/19 06:38:28;;;;;;;15.38;3.72;;;21.00;50.00;;;;;;5008735;28;20049;-41
2021/01/19 06:41:01;;;;;;;11.77;3.67;;;21.00;50.00;;;;;;5002620;28;20041;-44
2021/01/19 06:43:35;;;;;;;14.95;4.07;;;20.90;49.80;;;;;;5007547;28;20287;-41
2021/01/19 06:46:08;;;;;;;13.20;3.33;;;21.00;50.00;;;;;;5007469;28;20537;-43
2021/01/19 06:48:43;;;;;;;15.05;3.28;;;21.00;50.00;;;;;;5007049;28;20556;-43
2021/01/19 06:51:15;;;;;;;14.52;3.55;;;21.20;50.20;;;;;;5010789;28;20474;-42
2021/01/19 06:53:48;;;;;;;8.23;2.53;;;21.10;49.60;;;;;;5014297;28;20069;-44
2021/01/19 06:56:31;;;;;;;12.15;3.72;;;21.10;50.70;;;;;;5008231;28;20151;-46
2021/01/19 06:59:16;;;;;;;14.02;3.05;;;21.20;50.20;;;;;;5007972;28;20073;-53
2021/01/19 07:01:57;;;;;;;14.70;3.13;;;21.40;51.10;;;;;;5008616;28;20389;-46
2021/01/19 07:04:34;;;;;;;8.23;2.50;;;21.50;50.70;;;;;;5001456;28;20054;-44
2021/01/19 07:07:31;;;;;;;11.52;3.22;;;21.40;50.50;;;;;;5003214;28;20050;-48
2021/01/19 07:10:11;;;;;;;13.13;3.35;;;21.40;50.90;;;;;;4981871;28;111368;-40
2021/01/19 07:12:58;;;;;;;7.25;2.65;;;21.50;49.80;;;;;;4981323;28;20038;-40
2021/01/19 07:16:05;;;;;;;7.45;2.35;;;21.50;49.90;;;;;;4989245;28;20140;-46
2021/01/19 07:18:53;;;;;;;14.90;4.15;;;21.40;50.50;;;;;;4987770;28;20038;-48
2021/01/19 07:21:49;;;;;;;15.68;4.05;;;21.50;51.70;;;;;;4968941;28;20050;-48
2021/01/19 07:24:27;;;;;;;14.15;3.50;;;21.30;49.80;;;;;;4980623;28;20125;-39
2021/01/19 07:27:02;;;;;;;8.00;2.80;;;21.40;50.50;;;;;;4977752;28;20263;-39
2021/01/19 07:29:33;;;;;;;12.55;3.70;;;21.40;51.00;;;;;;4984556;28;20468;-38
2021/01/19 07:32:12;;;;;;;13.93;2.80;;;21.30;50.30;;;;;;4989783;28;20052;-48
2021/01/19 07:34:44;;;;;;;12.80;3.72;;;21.20;50.10;;;;;;4983622;28;20084;-48
2021/01/19 07:37:17;;;;;;;11.20;3.28;;;21.00;49.80;;;;;;4984956;28;20121;-39
2021/01/19 07:39:46;;;;;;;10.98;2.88;;;20.90;50.10;;;;;;4981972;28;20047;-39
2021/01/19 07:42:19;;;;;;;12.02;2.83;;;20.90;50.40;;;;;;4985824;28;20064;-39
2021/01/19 07:45:05;;;;;;;9.68;2.80;;;20.90;50.00;;;;;;4985878;28;20145;-38
2021/01/19 07:47:43;;;;;;;41.97;4.93;;;20.70;50.20;;;;;;4980583;28;20093;-39
2021/01/19 07:50:19;;;;;;;13.80;3.15;;;20.60;50.20;;;;;;4977121;28;20088;-39
2021/01/19 07:52:54;;;;;;;9.30;2.65;;;20.50;50.60;;;;;;4985088;28;20152;-39
2021/01/19 07:55:26;;;;;;;9.00;2.80;;;20.60;49.00;;;;;;4986322;28;20050;-39
2021/01/19 07:57:57;;;;;;;11.70;3.25;;;20.30;48.80;;;;;;4988353;28;20532;-39
2021/01/19 08:00:30;;;;;;;10.00;2.75;;;20.20;50.20;;;;;;4987266;28;20688;-39
2021/01/19 08:03:08;;;;;;;8.82;3.50;;;20.10;49.50;;;;;;4984185;28;20425;-49
2021/01/19 08:05:40;;;;;;;12.65;2.78;;;20.00;49.70;;;;;;4984922;28;20042;-41
2021/01/19 08:08:16;;;;;;;10.30;3.08;;;19.90;50.00;;;;;;4986374;28;20133;-39
2021/01/19 08:10:58;;;;;;;10.43;2.58;;;20.00;50.80;;;;;;4970036;28;21449;-39
2021/01/19 08:13:30;;;;;;;8.77;2.50;;;19.90;50.30;;;;;;4980722;28;20046;-40
2021/01/19 08:16:07;;;;;;;14.43;2.63;;;19.90;50.90;;;;;;4986307;28;20042;-39
2021/01/19 08:18:46;;;;;;;10.13;3.80;;;20.00;51.00;;;;;;4990554;28;20052;-39
2021/01/19 08:21:17;;;;;;;11.57;2.75;;;19.90;49.90;;;;;;4985469;28;20042;-39
2021/01/19 08:23:49;;;;;;;13.02;3.13;;;19.70;50.60;;;;;;4987392;28;20041;-48
2021/01/19 08:26:20;;;;;;;11.32;2.78;;;19.70;50.80;;;;;;4985901;28;20129;-39
2021/01/19 08:28:52;;;;;;;12.05;2.90;;;19.50;50.40;;;;;;4981973;28;20136;-39
2021/01/19 08:31:27;;;;;;;14.00;2.83;;;19.60;51.00;;;;;;4977010;28;20128;-40
2021/01/19 08:34:03;;;;;;;16.90;3.35;;;19.50;51.60;;;;;;4978464;28;20065;-39
2021/01/19 08:36:36;;;;;;;12.93;3.58;;;19.50;51.70;;;;;;4980347;28;20053;-41
2021/01/19 08:39:09;;;;;;;14.98;3.55;;;19.50;51.80;;;;;;4983648;28;20046;-39
2021/01/19 08:41:47;;;;;;;12.50;2.80;;;19.40;51.80;;;;;;4984436;28;20369;-39
2021/01/19 08:44:32;;;;;;;11.50;3.78;;;19.30;52.30;;;;;;4983802;28;20801;-39
2021/01/19 08:47:02;;;;;;;11.77;3.05;;;19.20;52.20;;;;;;4984533;28;20382;-39
2021/01/19 08:49:36;;;;;;;13.52;3.40;;;19.10;52.50;;;;;;4990296;28;20053;-39
2021/01/19 08:52:07;;;;;;;16.10;3.85;;;19.10;52.30;;;;;;4987856;28;20529;-39
2021/01/19 08:54:39;;;;;;;20.10;3.90;;;18.90;52.90;;;;;;4981698;28;20611;-39
2021/01/19 08:57:20;;;;;;;12.55;3.33;;;19.00;53.40;;;;;;4959491;28;20034;-39
2021/01/19 09:00:13;;;;;;;10.77;3.35;;;19.00;53.40;;;;;;4981927;28;20132;-40
2021/01/19 09:02:47;;;;;;;14.82;4.03;;;18.90;53.10;;;;;;4982117;28;20042;-40
2021/01/19 09:05:28;;;;;;;13.70;3.13;;;18.90;53.50;;;;;;4983685;28;20057;-40
2021/01/19 09:07:59;;;;;;;15.52;3.33;;;18.80;53.60;;;;;;4985123;28;20053;-40
2021/01/19 09:10:31;;;;;;;11.95;3.25;;;18.80;53.70;;;;;;4985732;28;20050;-39
2021/01/19 09:13:04;;;;;;;12.73;3.50;;;18.90;53.70;;;;;;4986999;28;20108;-39
2021/01/19 09:15:40;;;;;;;8.98;2.92;;;18.80;53.80;;;;;;4983404;28;20129;-41
2021/01/19 09:18:16;;;;;;;10.15;3.15;;;18.80;53.50;;;;;;4974101;28;20730;-40
2021/01/19 09:20:48;;;;;;;7.70;2.78;;;18.80;53.90;;;;;;4985398;28;20117;-40
2021/01/19 09:23:26;;;;;;;14.65;3.22;;;18.70;54.10;;;;;;4982041;28;20038;-40
2021/01/19 09:26:06;;;;;;;15.45;4.10;;;18.70;53.70;;;;;;4979553;28;20050;-40
2021/01/19 09:28:38;;;;;;;12.25;3.92;;;18.60;53.80;;;;;;4988113;28;20124;-40
2021/01/19 09:31:16;;;;;;;12.75;2.92;;;18.60;54.20;;;;;;4990270;28;20046;-39
2021/01/19 09:33:55;;;;;;;11.48;3.15;;;18.70;54.50;;;;;;4984232;28;20500;-39
2021/01/19 09:36:26;;;;;;;15.68;3.92;;;18.60;53.50;;;;;;4990321;28;20493;-40
2021/01/19 09:39:00;;;;;;;15.00;3.20;;;18.60;54.10;;;;;;4984042;28;20044;-49
2021/01/19 09:41:30;;;;;;;12.27;3.33;;;18.70;54.20;;;;;;4985876;28;20048;-48
2021/01/19 09:44:01;;;;;;;8.52;2.13;;;18.60;54.10;;;;;;4968504;28;20116;-39
2021/01/19 09:46:38;;;;;;;12.50;3.17;;;18.50;54.10;;;;;;4986521;28;20135;-39
2021/01/19 09:49:09;;;;;;;9.18;2.30;;;18.50;54.50;;;;;;4986276;28;20046;-40
2021/01/19 09:51:44;;;;;;;16.17;3.85;;;18.50;54.80;;;;;;4986597;28;20502;-39
2021/01/19 09:54:25;;;;;;;20.35;3.40;;;18.40;54.70;;;;;;4991503;28;20126;-39
2021/01/19 09:56:56;;;;;;;12.18;3.22;;;18.20;55.40;;;;;;4990644;28;20131;-40
2021/01/19 09:59:33;;;;;;;12.38;4.47;;;18.10;55.60;;;;;;4966793;28;20659;-39
2021/01/19 10:02:04;;;;;;;19.23;4.03;;;18.00;55.80;;;;;;4985006;28;20548;-39
2021/01/19 10:04:35;;;;;;;11.25;3.22;;;18.00;56.30;;;;;;4986849;28;20488;-39
2021/01/19 10:07:11;;;;;;;11.73;3.03;;;17.80;56.10;;;;;;4985802;28;20652;-39
2021/01/19 10:09:41;;;;;;;11.40;2.90;;;17.60;56.20;;;;;;4988889;28;20473;-39
2021/01/19 10:12:13;;;;;;;11.43;3.20;;;17.50;56.90;;;;;;4993819;28;20069;-39
2021/01/19 10:14:44;;;;;;;14.20;3.67;;;17.60;57.00;;;;;;4988253;28;20127;-38
2021/01/19 10:17:33;;;;;;;13.23;3.70;;;17.60;57.20;;;;;;4988824;28;20053;-38
2021/01/19 10:20:16;;;;;;;12.05;3.13;;;17.50;57.50;;;;;;4987746;28;20481;-41
2021/01/19 10:22:49;;;;;;;10.88;3.35;;;17.40;57.50;;;;;;4985335;28;20537;-38
2021/01/19 10:25:48;;;;;;;11.50;3.22;;;17.40;57.70;;;;;;4980472;28;20042;-48
2021/01/19 10:28:25;;;;;;;10.02;3.00;;;17.40;58.30;;;;;;4983974;28;20066;-40
2021/01/19 10:30:55;;;;;;;15.65;3.53;;;17.40;58.60;;;;;;4987763;28;20054;-39
2021/01/19 10:33:28;;;;;;;16.02;3.53;;;17.50;58.40;;;;;;4989588;28;20118;-39
2021/01/19 10:36:07;;;;;;;10.93;3.88;;;17.50;58.60;;;;;;4966472;28;20528;-39
2021/01/19 10:38:40;;;;;;;13.20;3.88;;;17.50;58.40;;;;;;4993713;28;20100;-40
2021/01/19 10:41:12;;;;;;;12.10;3.40;;;17.60;58.70;;;;;;4985020;28;20046;-39
2021/01/19 10:43:41;;;;;;;13.98;3.67;;;17.50;58.60;;;;;;4987493;28;20038;-43
2021/01/19 10:46:24;;;;;;;16.73;4.72;;;17.50;58.40;;;;;;4981366;28;20722;-40
2021/01/19 10:49:11;;;;;;;13.13;3.95;;;17.30;58.70;;;;;;4966228;28;20147;-40
2021/01/19 10:51:44;;;;;;;15.38;3.38;;;17.10;58.70;;;;;;4982893;28;20049;-42
2021/01/19 10:54:19;;;;;;;12.48;3.42;;;17.10;59.20;;;;;;4988264;28;20469;-39
2021/01/19 10:57:06;;;;;;;10.50;4.47;;;17.20;58.90;;;;;;4967661;28;20042;-38
2021/01/19 10:59:37;;;;;;;15.68;3.75;;;17.10;59.00;;;;;;4989585;28;20053;-40
2021/01/19 11:02:10;;;;;;;8.32;3.08;;;17.20;59.50;;;;;;4985164;28;20228;-40
2021/01/19 11:04:40;;;;;;;12.23;2.95;;;17.20;59.50;;;;;;4987605;28;20050;-41
2021/01/19 11:07:11;;;;;;;17.42;3.90;;;17.20;59.70;;;;;;4984711;28;20596;-40
2021/01/19 11:09:41;;;;;;;13.93;4.53;;;17.10;59.50;;;;;;4979323;28;20732;-39
2021/01/19 11:12:11;;;;;;;13.15;3.83;;;17.00;59.50;;;;;;4980417;28;20056;-39
2021/01/19 11:14:40;;;;;;;10.07;3.40;;;16.90;59.80;;;;;;4986845;28;20048;-39
2021/01/19 11:17:10;;;;;;;12.35;3.08;;;16.90;60.00;;;;;;4986184;28;20042;-41
2021/01/19 11:19:41;;;;;;;13.98;3.05;;;16.90;60.00;;;;;;4986720;28;20097;-40
2021/01/19 11:22:12;;;;;;;18.98;4.25;;;16.80;60.00;;;;;;4985475;28;20074;-41
2021/01/19 11:24:43;;;;;;;14.48;3.90;;;16.80;60.10;;;;;;4988130;28;20042;-40
2021/01/19 11:27:14;;;;;;;8.73;3.58;;;16.80;60.20;;;;;;4983487;28;20108;-39
2021/01/19 11:29:44;;;;;;;9.63;3.33;;;16.80;60.50;;;;;;4983784;28;20494;-40
2021/01/19 11:32:15;;;;;;;15.73;4.43;;;16.70;60.60;;;;;;4977199;28;20512;-49
2021/01/19 11:34:47;;;;;;;10.77;3.20;;;16.60;60.60;;;;;;4980310;28;20042;-39
2021/01/19 11:37:17;;;;;;;14.75;3.28;;;16.50;60.90;;;;;;4982556;28;20100;-39
2021/01/19 11:39:47;;;;;;;14.73;3.67;;;16.40;61.50;;;;;;4986904;28;20058;-40
2021/01/19 11:42:18;;;;;;;16.58;3.92;;;16.40;61.40;;;;;;4987637;28;20042;-45
2021/01/19 11:44:49;;;;;;;14.15;3.97;;;16.30;61.60;;;;;;4986655;28;20034;-40
2021/01/19 11:47:20;;;;;;;11.43;3.20;;;16.10;61.60;;;;;;4986559;28;20046;-39
2021/01/19 11:49:51;;;;;;;13.50;3.88;;;16.10;61.90;;;;;;4988575;28;20056;-39
2021/01/19 11:52:23;;;;;;;17.88;4.18;;;16.00;62.10;;;;;;4983382;28;20050;-39
2021/01/19 11:54:56;;;;;;;19.50;4.13;;;15.90;62.10;;;;;;4984325;28;20040;-38
2021/01/19 11:57:27;;;;;;;12.65;3.22;;;15.80;63.10;;;;;;4982798;28;20105;-39
2021/01/19 11:59:57;;;;;;;11.43;2.83;;;15.60;63.20;;;;;;4988308;28;20052;-39
2021/01/19 12:02:31;;;;;;;13.50;3.40;;;15.60;63.50;;;;;;4986511;28;20077;-39
2021/01/19 12:05:03;;;;;;;14.73;3.95;;;15.60;63.30;;;;;;4981458;28;20046;-39
2021/01/19 12:07:39;;;;;;;13.18;3.67;;;15.50;63.30;;;;;;4967681;28;20050;-39
2021/01/19 12:10:10;;;;;;;11.65;3.35;;;15.40;63.50;;;;;;4988906;28;20119;-39
2021/01/19 12:12:42;;;;;;;;;;;15.40;63.90;;;;;;4987872;28;20121;-39
2021/01/19 12:15:14;;;;;;;13.77;4.13;;;15.30;63.80;;;;;;4979649;28;19931;-39
2021/01/19 12:17:44;;;;;;;8.15;3.58;;;15.20;64.40;;;;;;4981620;28;20042;-39
2021/01/19 12:20:16;;;;;;;15.02;2.72;;;15.20;64.40;;;;;;4978895;28;20611;-39
2021/01/19 12:22:47;;;;;;;16.10;3.63;;;15.10;64.80;;;;;;4985783;28;20129;-39
2021/01/19 12:25:20;;;;;;;14.07;2.87;;;15.00;65.40;;;;;;4986073;28;20052;-39
2021/01/19 12:27:51;;;;;;;8.82;2.58;;;15.10;65.00;;;;;;4991384;28;20336;-39
2021/01/19 12:30:22;;;;;;;17.00;3.45;;;15.10;65.40;;;;;;4982927;28;20089;-39
2021/01/19 12:32:53;;;;;;;15.90;3.45;;;15.00;65.50;;;;;;4985451;28;20077;-48
2021/01/19 12:35:23;;;;;;;15.05;4.07;;;15.10;65.20;;;;;;4983008;28;20494;-48
2021/01/19 12:37:57;;;;;;;15.35;3.20;;;15.10;65.00;;;;;;4961877;28;20082;-49
2021/01/19 12:40:28;;;;;;;12.88;3.08;;;15.00;65.40;;;;;;4975449;28;20053;-48
2021/01/19 12:42:59;;;;;;;10.70;3.30;;;15.00;65.40;;;;;;4979359;28;20039;-48
2021/01/19 12:45:30;;;;;;;10.60;2.72;;;15.00;65.30;;;;;;4984549;28;20041;-49
2021/01/19 12:48:00;;;;;;;7.25;2.92;;;15.00;65.30;;;;;;4985881;28;20134;-39
2021/01/19 12:50:32;;;;;;;12.25;3.13;;;15.00;65.50;;;;;;4966844;28;20674;-48
2021/01/19 12:53:05;;;;;;;14.55;4.65;;;15.00;65.80;;;;;;4968054;28;20751;-40
2021/01/19 12:55:36;;;;;;;7.43;2.88;;;15.00;65.60;;;;;;4983790;28;20066;-39
2021/01/19 12:58:08;;;;;;;12.90;3.15;;;15.00;65.70;;;;;;4987869;28;20152;-39
2021/01/19 13:00:38;;;;;;;;;;;15.00;65.60;;;;;;4986154;28;20054;-38
2021/01/19 13:03:10;;;;;;;12.70;3.55;;;14.80;65.70;;;;;;5002973;28;19925;-38
2021/01/19 13:05:42;;;;;;;15.35;3.55;;;14.80;65.90;;;;;;5000830;28;20105;-38
2021/01/19 13:08:12;;;;;;;13.88;3.63;;;14.60;65.90;;;;;;5000966;28;20042;-39
2021/01/19 13:10:42;;;;;;;11.23;2.97;;;14.70;66.10;;;;;;5000527;28;20130;-39
2021/01/19 13:13:15;;;;;;;13.98;3.13;;;14.50;65.90;;;;;;5005192;28;20042;-40
2021/01/19 13:15:46;;;;;;;13.50;3.45;;;14.40;66.20;;;;;;5001179;28;20042;-38
2021/01/19 13:18:18;;;;;;;15.27;3.42;;;14.30;66.70;;;;;;4997545;28;20046;-48
2021/01/19 13:20:50;;;;;;;12.77;3.47;;;14.30;67.10;;;;;;5001523;28;20105;-49